Portaferry, United Kingdom
Current Conditions -  °F | °C
As of 3:20 PM on Thursday 18 Dec 2014 (Local Time) from EGAC Reporting Station
Rain Showers Rain Showers  
Wind Chill: 50°   Ceiling: 4500
Heat Index: 50°   Visibility: 6mi
Dew Point: 45°   Wind: 16mph
Humidity: 82%   Direction: 260°W
Pressure: 29.5"   Gusts: 29mph
Location:  54.38°N, 5.55°W
Report Text: EGAC 181520Z 26014G25KT 9999 7000SW VCSH FEW011 SCT026 BKN045 10/07 Q0999
Loading
Personal Weather Stations






























Interactive Weather Map New forecast layout! Learn more

10-Day Weather Forecast

Advertisements
Track Severe Weather on mobile